sensor_id;sensor_type;location;lat;lon;timestamp;temperature;humidity
41756;DHT22;27435;48.480;9.258;2022-07-23T00:01:32;21.00;99.00
41756;DHT22;27435;48.480;9.258;2022-07-23T00:03:57;21.10;99.00
41756;DHT22;27435;48.480;9.258;2022-07-23T00:06:24;21.00;99.00
41756;DHT22;27435;48.480;9.258;2022-07-23T00:08:52;21.00;99.00
41756;DHT22;27435;48.480;9.258;2022-07-23T00:11:18;20.80;99.00
41756;DHT22;27435;48.480;9.258;2022-07-23T00:13:45;20.70;99.00
41756;DHT22;27435;48.480;9.258;2022-07-23T00:16:10;20.60;99.00
41756;DHT22;27435;48.480;9.258;2022-07-23T00:18:36;20.70;97.60
41756;DHT22;27435;48.480;9.258;2022-07-23T00:21:02;20.80;97.90
41756;DHT22;27435;48.480;9.258;2022-07-23T00:23:28;20.80;96.40
41756;DHT22;27435;48.480;9.258;2022-07-23T00:25:54;20.80;97.10
41756;DHT22;27435;48.480;9.258;2022-07-23T00:28:20;20.80;94.00
41756;DHT22;27435;48.480;9.258;2022-07-23T00:30:46;20.90;93.80
41756;DHT22;27435;48.480;9.258;2022-07-23T00:33:12;20.90;93.80
41756;DHT22;27435;48.480;9.258;2022-07-23T00:35:39;20.90;93.80
41756;DHT22;27435;48.480;9.258;2022-07-23T00:38:07;20.90;93.20
41756;DHT22;27435;48.480;9.258;2022-07-23T00:40:33;21.00;92.90
41756;DHT22;27435;48.480;9.258;2022-07-23T00:42:59;21.00;93.10
41756;DHT22;27435;48.480;9.258;2022-07-23T00:45:25;21.10;92.20
41756;DHT22;27435;48.480;9.258;2022-07-23T00:47:51;21.10;91.70
41756;DHT22;27435;48.480;9.258;2022-07-23T00:50:17;21.10;91.80
41756;DHT22;27435;48.480;9.258;2022-07-23T00:52:43;21.00;93.30
41756;DHT22;27435;48.480;9.258;2022-07-23T00:55:10;21.00;93.40
41756;DHT22;27435;48.480;9.258;2022-07-23T00:57:37;21.10;92.10
41756;DHT22;27435;48.480;9.258;2022-07-23T01:00:06;21.20;87.50
41756;DHT22;27435;48.480;9.258;2022-07-23T01:02:32;21.10;90.90
41756;DHT22;27435;48.480;9.258;2022-07-23T01:04:58;21.00;91.50
41756;DHT22;27435;48.480;9.258;2022-07-23T01:07:24;21.00;91.00
41756;DHT22;27435;48.480;9.258;2022-07-23T01:09:51;21.10;89.10
41756;DHT22;27435;48.480;9.258;2022-07-23T01:12:17;21.00;89.80
41756;DHT22;27435;48.480;9.258;2022-07-23T01:14:43;21.00;91.40
41756;DHT22;27435;48.480;9.258;2022-07-23T01:17:09;21.00;92.80
41756;DHT22;27435;48.480;9.258;2022-07-23T01:19:35;21.00;94.20
41756;DHT22;27435;48.480;9.258;2022-07-23T01:22:03;21.00;94.50
41756;DHT22;27435;48.480;9.258;2022-07-23T01:24:28;21.00;94.90
41756;DHT22;27435;48.480;9.258;2022-07-23T01:26:54;21.10;94.20
41756;DHT22;27435;48.480;9.258;2022-07-23T01:29:20;21.20;94.60
41756;DHT22;27435;48.480;9.258;2022-07-23T01:31:46;21.10;96.20
41756;DHT22;27435;48.480;9.258;2022-07-23T01:34:12;21.10;96.30
41756;DHT22;27435;48.480;9.258;2022-07-23T01:36:39;21.00;95.80
41756;DHT22;27435;48.480;9.258;2022-07-23T01:39:05;21.00;95.00
41756;DHT22;27435;48.480;9.258;2022-07-23T01:41:31;20.90;94.10
41756;DHT22;27435;48.480;9.258;2022-07-23T01:43:57;20.90;93.40
41756;DHT22;27435;48.480;9.258;2022-07-23T01:46:22;20.90;95.70
41756;DHT22;27435;48.480;9.258;2022-07-23T01:48:48;20.80;97.70
41756;DHT22;27435;48.480;9.258;2022-07-23T01:51:14;20.60;99.00
41756;DHT22;27435;48.480;9.258;2022-07-23T01:53:40;20.40;97.30
41756;DHT22;27435;48.480;9.258;2022-07-23T01:56:05;20.40;95.10
41756;DHT22;27435;48.480;9.258;2022-07-23T01:58:32;20.50;93.60
41756;DHT22;27435;48.480;9.258;2022-07-23T02:00:57;20.70;90.50
41756;DHT22;27435;48.480;9.258;2022-07-23T02:03:23;20.90;88.80
41756;DHT22;27435;48.480;9.258;2022-07-23T02:05:49;21.10;88.30
41756;DHT22;27435;48.480;9.258;2022-07-23T02:08:15;21.20;87.50
41756;DHT22;27435;48.480;9.258;2022-07-23T02:10:40;21.20;86.50
41756;DHT22;27435;48.480;9.258;2022-07-23T02:13:06;21.30;86.00
41756;DHT22;27435;48.480;9.258;2022-07-23T02:15:32;21.30;84.30
41756;DHT22;27435;48.480;9.258;2022-07-23T02:17:58;21.30;83.90
41756;DHT22;27435;48.480;9.258;2022-07-23T02:20:24;21.40;83.70
41756;DHT22;27435;48.480;9.258;2022-07-23T02:22:49;21.40;84.00
41756;DHT22;27435;48.480;9.258;2022-07-23T02:25:15;21.50;83.90
41756;DHT22;27435;48.480;9.258;2022-07-23T02:27:41;21.50;84.20
41756;DHT22;27435;48.480;9.258;2022-07-23T02:30:07;21.50;84.50
41756;DHT22;27435;48.480;9.258;2022-07-23T02:32:34;21.40;85.50
41756;DHT22;27435;48.480;9.258;2022-07-23T02:35:00;21.40;86.50
41756;DHT22;27435;48.480;9.258;2022-07-23T02:37:25;21.30;87.50
41756;DHT22;27435;48.480;9.258;2022-07-23T02:39:51;21.10;88.60
41756;DHT22;27435;48.480;9.258;2022-07-23T02:42:17;21.20;88.60
41756;DHT22;27435;48.480;9.258;2022-07-23T02:44:43;21.20;88.20
41756;DHT22;27435;48.480;9.258;2022-07-23T02:47:09;21.20;87.10
41756;DHT22;27435;48.480;9.258;2022-07-23T02:49:34;21.30;88.10
41756;DHT22;27435;48.480;9.258;2022-07-23T02:52:00;21.40;86.50
41756;DHT22;27435;48.480;9.258;2022-07-23T02:54:25;21.40;85.80
41756;DHT22;27435;48.480;9.258;2022-07-23T02:56:51;21.40;86.00
41756;DHT22;27435;48.480;9.258;2022-07-23T02:59:17;21.50;86.10
41756;DHT22;27435;48.480;9.258;2022-07-23T03:01:43;21.40;86.70
41756;DHT22;27435;48.480;9.258;2022-07-23T03:04:09;21.20;87.60
41756;DHT22;27435;48.480;9.258;2022-07-23T03:06:35;21.30;87.90
41756;DHT22;27435;48.480;9.258;2022-07-23T03:09:02;21.40;87.70
41756;DHT22;27435;48.480;9.258;2022-07-23T03:11:27;21.40;88.40
41756;DHT22;27435;48.480;9.258;2022-07-23T03:13:53;21.30;89.00
41756;DHT22;27435;48.480;9.258;2022-07-23T03:16:19;21.30;89.40
41756;DHT22;27435;48.480;9.258;2022-07-23T03:18:44;21.20;90.20
41756;DHT22;27435;48.480;9.258;2022-07-23T03:21:10;21.00;91.40
41756;DHT22;27435;48.480;9.258;2022-07-23T03:23:35;21.00;92.10
41756;DHT22;27435;48.480;9.258;2022-07-23T03:26:01;21.10;91.80
41756;DHT22;27435;48.480;9.258;2022-07-23T03:28:27;21.10;91.70
41756;DHT22;27435;48.480;9.258;2022-07-23T03:30:52;20.90;92.40
41756;DHT22;27435;48.480;9.258;2022-07-23T03:33:19;20.80;92.90
41756;DHT22;27435;48.480;9.258;2022-07-23T03:35:46;20.60;94.50
41756;DHT22;27435;48.480;9.258;2022-07-23T03:38:12;20.30;96.90
41756;DHT22;27435;48.480;9.258;2022-07-23T03:40:38;20.20;99.00
41756;DHT22;27435;48.480;9.258;2022-07-23T03:43:04;20.30;99.00
41756;DHT22;27435;48.480;9.258;2022-07-23T03:45:30;20.40;99.00
41756;DHT22;27435;48.480;9.258;2022-07-23T03:47:56;20.30;99.00
41756;DHT22;27435;48.480;9.258;2022-07-23T03:50:22;20.30;99.00
41756;DHT22;27435;48.480;9.258;2022-07-23T03:52:48;20.40;99.00
41756;DHT22;27435;48.480;9.258;2022-07-23T03:55:14;20.30;99.00
41756;DHT22;27435;48.480;9.258;2022-07-23T03:57:40;20.10;98.60
41756;DHT22;27435;48.480;9.258;2022-07-23T04:00:07;19.90;99.00
41756;DHT22;27435;48.480;9.258;2022-07-23T04:02:34;19.90;99.00
41756;DHT22;27435;48.480;9.258;2022-07-23T04:05:00;19.80;99.00
41756;DHT22;27435;48.480;9.258;2022-07-23T04:07:26;19.80;99.00
41756;DHT22;27435;48.480;9.258;2022-07-23T04:09:51;19.80;99.00
41756;DHT22;27435;48.480;9.258;2022-07-23T04:12:17;19.90;99.00
41756;DHT22;27435;48.480;9.258;2022-07-23T04:14:43;20.00;99.00
41756;DHT22;27435;48.480;9.258;2022-07-23T04:17:09;20.10;98.30
41756;DHT22;27435;48.480;9.258;2022-07-23T04:19:34;20.10;98.00
41756;DHT22;27435;48.480;9.258;2022-07-23T04:22:05;20.20;97.40
41756;DHT22;27435;48.480;9.258;2022-07-23T04:24:31;20.10;97.70
41756;DHT22;27435;48.480;9.258;2022-07-23T04:26:56;20.10;98.30
41756;DHT22;27435;48.480;9.258;2022-07-23T04:29:23;20.10;98.60
41756;DHT22;27435;48.480;9.258;2022-07-23T04:31:48;20.10;98.60
41756;DHT22;27435;48.480;9.258;2022-07-23T04:34:14;20.20;98.30
41756;DHT22;27435;48.480;9.258;2022-07-23T04:36:40;20.10;98.00
41756;DHT22;27435;48.480;9.258;2022-07-23T04:39:05;20.20;97.60
41756;DHT22;27435;48.480;9.258;2022-07-23T04:41:32;20.20;98.50
41756;DHT22;27435;48.480;9.258;2022-07-23T04:43:57;20.20;98.30
41756;DHT22;27435;48.480;9.258;2022-07-23T04:46:23;20.20;97.70
41756;DHT22;27435;48.480;9.258;2022-07-23T04:48:49;20.20;96.90
41756;DHT22;27435;48.480;9.258;2022-07-23T04:51:14;20.30;96.70
41756;DHT22;27435;48.480;9.258;2022-07-23T04:53:40;20.40;95.90
41756;DHT22;27435;48.480;9.258;2022-07-23T04:56:07;20.40;96.00
41756;DHT22;27435;48.480;9.258;2022-07-23T04:58:33;20.50;96.60
41756;DHT22;27435;48.480;9.258;2022-07-23T05:00:58;20.60;97.60
41756;DHT22;27435;48.480;9.258;2022-07-23T05:03:24;20.70;97.30
41756;DHT22;27435;48.480;9.258;2022-07-23T05:05:49;20.90;96.40
41756;DHT22;27435;48.480;9.258;2022-07-23T05:08:15;21.00;95.50
41756;DHT22;27435;48.480;9.258;2022-07-23T05:10:41;21.00;95.20
41756;DHT22;27435;48.480;9.258;2022-07-23T05:13:07;20.90;95.50
41756;DHT22;27435;48.480;9.258;2022-07-23T05:15:32;21.00;95.50
41756;DHT22;27435;48.480;9.258;2022-07-23T05:17:58;21.10;94.80
41756;DHT22;27435;48.480;9.258;2022-07-23T05:20:24;21.20;93.60
41756;DHT22;27435;48.480;9.258;2022-07-23T05:22:49;21.30;91.60
41756;DHT22;27435;48.480;9.258;2022-07-23T05:25:15;21.40;91.20
41756;DHT22;27435;48.480;9.258;2022-07-23T05:27:41;21.60;91.60
41756;DHT22;27435;48.480;9.258;2022-07-23T05:30:07;21.60;90.90
41756;DHT22;27435;48.480;9.258;2022-07-23T05:32:33;21.60;91.60
41756;DHT22;27435;48.480;9.258;2022-07-23T05:34:58;21.70;91.80
41756;DHT22;27435;48.480;9.258;2022-07-23T05:37:24;21.60;92.70
41756;DHT22;27435;48.480;9.258;2022-07-23T05:39:50;21.50;93.80
41756;DHT22;27435;48.480;9.258;2022-07-23T05:42:16;21.60;91.40
41756;DHT22;27435;48.480;9.258;2022-07-23T05:44:42;21.70;91.20
41756;DHT22;27435;48.480;9.258;2022-07-23T05:47:07;21.70;91.60
41756;DHT22;27435;48.480;9.258;2022-07-23T05:49:33;21.70;92.10
41756;DHT22;27435;48.480;9.258;2022-07-23T05:52:04;21.60;91.90
41756;DHT22;27435;48.480;9.258;2022-07-23T05:54:30;21.80;91.10
41756;DHT22;27435;48.480;9.258;2022-07-23T05:56:55;22.50;88.30
41756;DHT22;27435;48.480;9.258;2022-07-23T05:59:21;23.10;86.70
41756;DHT22;27435;48.480;9.258;2022-07-23T06:01:47;23.60;85.00
41756;DHT22;27435;48.480;9.258;2022-07-23T06:04:12;24.20;81.10
41756;DHT22;27435;48.480;9.258;2022-07-23T06:06:38;24.70;80.40
41756;DHT22;27435;48.480;9.258;2022-07-23T06:09:03;25.20;76.20
41756;DHT22;27435;48.480;9.258;2022-07-23T06:11:29;25.70;75.30
41756;DHT22;27435;48.480;9.258;2022-07-23T06:13:55;26.00;73.90
41756;DHT22;27435;48.480;9.258;2022-07-23T06:16:20;26.30;73.10
41756;DHT22;27435;48.480;9.258;2022-07-23T06:18:46;26.80;70.10
41756;DHT22;27435;48.480;9.258;2022-07-23T06:21:12;27.20;67.40
41756;DHT22;27435;48.480;9.258;2022-07-23T06:23:37;27.50;67.00
41756;DHT22;27435;48.480;9.258;2022-07-23T06:26:03;27.70;66.10
41756;DHT22;27435;48.480;9.258;2022-07-23T06:28:28;27.80;64.70
41756;DHT22;27435;48.480;9.258;2022-07-23T06:30:54;28.00;65.10
41756;DHT22;27435;48.480;9.258;2022-07-23T06:33:20;27.80;64.60
41756;DHT22;27435;48.480;9.258;2022-07-23T06:35:45;27.50;65.90
41756;DHT22;27435;48.480;9.258;2022-07-23T06:38:11;28.00;64.90
41756;DHT22;27435;48.480;9.258;2022-07-23T06:40:37;28.40;64.30
41756;DHT22;27435;48.480;9.258;2022-07-23T06:43:02;28.60;62.70
41756;DHT22;27435;48.480;9.258;2022-07-23T06:45:28;27.80;64.90
41756;DHT22;27435;48.480;9.258;2022-07-23T06:47:54;28.00;63.60
41756;DHT22;27435;48.480;9.258;2022-07-23T06:50:19;28.30;63.70
41756;DHT22;27435;48.480;9.258;2022-07-23T06:52:45;28.40;63.10
41756;DHT22;27435;48.480;9.258;2022-07-23T06:55:11;28.40;63.60
41756;DHT22;27435;48.480;9.258;2022-07-23T06:57:36;27.90;64.30
41756;DHT22;27435;48.480;9.258;2022-07-23T07:00:03;28.20;63.70
41756;DHT22;27435;48.480;9.258;2022-07-23T07:02:29;28.70;62.00
41756;DHT22;27435;48.480;9.258;2022-07-23T07:04:54;28.90;62.50
41756;DHT22;27435;48.480;9.258;2022-07-23T07:07:21;28.90;61.10
41756;DHT22;27435;48.480;9.258;2022-07-23T07:09:47;28.60;62.00
41756;DHT22;27435;48.480;9.258;2022-07-23T07:12:12;28.30;62.50
41756;DHT22;27435;48.480;9.258;2022-07-23T07:14:38;28.40;61.80
41756;DHT22;27435;48.480;9.258;2022-07-23T07:17:04;27.90;63.30
41756;DHT22;27435;48.480;9.258;2022-07-23T07:19:30;27.50;64.90
41756;DHT22;27435;48.480;9.258;2022-07-23T07:21:55;27.40;64.40
41756;DHT22;27435;48.480;9.258;2022-07-23T07:24:21;26.90;65.50
41756;DHT22;27435;48.480;9.258;2022-07-23T07:26:47;26.70;66.50
41756;DHT22;27435;48.480;9.258;2022-07-23T07:29:12;26.70;67.00
41756;DHT22;27435;48.480;9.258;2022-07-23T07:31:38;26.10;66.90
41756;DHT22;27435;48.480;9.258;2022-07-23T07:34:04;26.30;67.20
41756;DHT22;27435;48.480;9.258;2022-07-23T07:36:29;27.00;65.20
41756;DHT22;27435;48.480;9.258;2022-07-23T07:38:55;27.60;64.50
41756;DHT22;27435;48.480;9.258;2022-07-23T07:41:20;28.00;63.80
41756;DHT22;27435;48.480;9.258;2022-07-23T07:43:49;28.50;62.70
41756;DHT22;27435;48.480;9.258;2022-07-23T07:46:16;28.80;61.40
41756;DHT22;27435;48.480;9.258;2022-07-23T07:48:41;28.30;62.20
41756;DHT22;27435;48.480;9.258;2022-07-23T07:51:07;27.60;64.20
41756;DHT22;27435;48.480;9.258;2022-07-23T07:53:33;27.00;65.70
41756;DHT22;27435;48.480;9.258;2022-07-23T07:55:59;26.40;68.00
41756;DHT22;27435;48.480;9.258;2022-07-23T07:58:24;25.90;68.90
41756;DHT22;27435;48.480;9.258;2022-07-23T08:00:50;25.70;69.30
41756;DHT22;27435;48.480;9.258;2022-07-23T08:03:17;25.90;68.70
41756;DHT22;27435;48.480;9.258;2022-07-23T08:05:42;26.10;68.40
41756;DHT22;27435;48.480;9.258;2022-07-23T08:08:08;26.40;67.40
41756;DHT22;27435;48.480;9.258;2022-07-23T08:10:35;26.20;67.70
41756;DHT22;27435;48.480;9.258;2022-07-23T08:13:01;25.90;69.40
41756;DHT22;27435;48.480;9.258;2022-07-23T08:15:28;25.60;69.60
41756;DHT22;27435;48.480;9.258;2022-07-23T08:17:54;25.60;70.50
41756;DHT22;27435;48.480;9.258;2022-07-23T08:20:22;25.50;70.60
41756;DHT22;27435;48.480;9.258;2022-07-23T08:22:58;25.50;70.00
41756;DHT22;27435;48.480;9.258;2022-07-23T08:25:30;26.20;69.10
41756;DHT22;27435;48.480;9.258;2022-07-23T08:27:58;26.80;67.70
41756;DHT22;27435;48.480;9.258;2022-07-23T08:30:24;26.80;66.80
41756;DHT22;27435;48.480;9.258;2022-07-23T08:33:01;26.80;66.20
41756;DHT22;27435;48.480;9.258;2022-07-23T08:35:39;26.90;66.30
41756;DHT22;27435;48.480;9.258;2022-07-23T08:38:06;27.10;66.60
41756;DHT22;27435;48.480;9.258;2022-07-23T08:40:35;27.30;66.00
41756;DHT22;27435;48.480;9.258;2022-07-23T08:43:05;27.20;65.70
41756;DHT22;27435;48.480;9.258;2022-07-23T08:45:36;27.40;65.10
41756;DHT22;27435;48.480;9.258;2022-07-23T08:48:03;27.80;66.00
41756;DHT22;27435;48.480;9.258;2022-07-23T08:50:29;27.40;67.40
41756;DHT22;27435;48.480;9.258;2022-07-23T08:52:54;27.30;67.50
41756;DHT22;27435;48.480;9.258;2022-07-23T08:55:22;27.40;66.80
41756;DHT22;27435;48.480;9.258;2022-07-23T08:57:49;27.80;66.80
41756;DHT22;27435;48.480;9.258;2022-07-23T09:00:16;27.70;66.40
41756;DHT22;27435;48.480;9.258;2022-07-23T09:02:44;27.40;66.60
41756;DHT22;27435;48.480;9.258;2022-07-23T09:05:11;27.40;67.30
41756;DHT22;27435;48.480;9.258;2022-07-23T09:07:38;27.50;66.70
41756;DHT22;27435;48.480;9.258;2022-07-23T09:10:11;27.30;68.10
41756;DHT22;27435;48.480;9.258;2022-07-23T09:12:37;27.60;67.20
41756;DHT22;27435;48.480;9.258;2022-07-23T09:15:09;27.90;67.30
41756;DHT22;27435;48.480;9.258;2022-07-23T09:17:40;28.10;67.40
41756;DHT22;27435;48.480;9.258;2022-07-23T09:20:12;27.40;67.10
41756;DHT22;27435;48.480;9.258;2022-07-23T09:22:39;27.00;69.50
41756;DHT22;27435;48.480;9.258;2022-07-23T09:25:16;27.00;70.00
41756;DHT22;27435;48.480;9.258;2022-07-23T09:27:52;27.10;69.10
41756;DHT22;27435;48.480;9.258;2022-07-23T09:30:22;27.50;68.70
41756;DHT22;27435;48.480;9.258;2022-07-23T09:33:09;28.00;66.90
41756;DHT22;27435;48.480;9.258;2022-07-23T09:38:11;27.20;69.80
41756;DHT22;27435;48.480;9.258;2022-07-23T09:40:37;27.30;67.10
41756;DHT22;27435;48.480;9.258;2022-07-23T09:43:02;27.40;67.50
41756;DHT22;27435;48.480;9.258;2022-07-23T09:45:28;28.00;66.20
41756;DHT22;27435;48.480;9.258;2022-07-23T09:48:11;28.40;64.60
41756;DHT22;27435;48.480;9.258;2022-07-23T09:50:37;28.70;63.40
41756;DHT22;27435;48.480;9.258;2022-07-23T09:53:03;28.00;65.60
41756;DHT22;27435;48.480;9.258;2022-07-23T09:55:33;27.70;68.70
41756;DHT22;27435;48.480;9.258;2022-07-23T09:58:02;27.10;69.80
41756;DHT22;27435;48.480;9.258;2022-07-23T10:00:29;26.80;70.90
41756;DHT22;27435;48.480;9.258;2022-07-23T10:02:55;27.00;70.10
41756;DHT22;27435;48.480;9.258;2022-07-23T10:05:21;27.20;69.30
41756;DHT22;27435;48.480;9.258;2022-07-23T10:07:48;27.40;69.40
41756;DHT22;27435;48.480;9.258;2022-07-23T10:10:16;27.70;68.70
41756;DHT22;27435;48.480;9.258;2022-07-23T10:12:44;27.50;69.50
41756;DHT22;27435;48.480;9.258;2022-07-23T10:15:12;27.50;67.50
41756;DHT22;27435;48.480;9.258;2022-07-23T10:17:38;27.60;67.10
41756;DHT22;27435;48.480;9.258;2022-07-23T10:20:04;27.50;67.30
41756;DHT22;27435;48.480;9.258;2022-07-23T10:22:36;27.60;67.30
41756;DHT22;27435;48.480;9.258;2022-07-23T10:31:08;28.80;63.10
41756;DHT22;27435;48.480;9.258;2022-07-23T10:36:42;28.50;64.60
41756;DHT22;27435;48.480;9.258;2022-07-23T10:39:22;28.60;64.10
41756;DHT22;27435;48.480;9.258;2022-07-23T10:41:49;29.60;61.80
41756;DHT22;27435;48.480;9.258;2022-07-23T10:44:22;28.90;62.80
41756;DHT22;27435;48.480;9.258;2022-07-23T10:46:56;28.50;63.80
41756;DHT22;27435;48.480;9.258;2022-07-23T10:49:34;28.80;63.60
41756;DHT22;27435;48.480;9.258;2022-07-23T10:52:19;29.50;62.40
41756;DHT22;27435;48.480;9.258;2022-07-23T10:54:50;29.40;63.70
41756;DHT22;27435;48.480;9.258;2022-07-23T10:57:19;28.30;66.00
41756;DHT22;27435;48.480;9.258;2022-07-23T11:02:38;28.50;64.40
41756;DHT22;27435;48.480;9.258;2022-07-23T11:05:13;28.30;65.50
41756;DHT22;27435;48.480;9.258;2022-07-23T11:10:42;27.70;66.70
41756;DHT22;27435;48.480;9.258;2022-07-23T11:13:27;27.50;66.90
41756;DHT22;27435;48.480;9.258;2022-07-23T11:32:18;28.00;64.80
41756;DHT22;27435;48.480;9.258;2022-07-23T11:34:46;28.60;65.90
41756;DHT22;27435;48.480;9.258;2022-07-23T11:37:44;27.80;66.60
41756;DHT22;27435;48.480;9.258;2022-07-23T11:40:11;28.10;66.30
41756;DHT22;27435;48.480;9.258;2022-07-23T11:42:39;28.30;63.80
41756;DHT22;27435;48.480;9.258;2022-07-23T11:45:07;27.80;64.80
41756;DHT22;27435;48.480;9.258;2022-07-23T11:47:33;28.20;63.60
41756;DHT22;27435;48.480;9.258;2022-07-23T11:50:01;28.50;62.70
41756;DHT22;27435;48.480;9.258;2022-07-23T11:52:28;29.10;61.90
41756;DHT22;27435;48.480;9.258;2022-07-23T11:55:09;28.60;62.50
41756;DHT22;27435;48.480;9.258;2022-07-23T11:57:40;28.40;62.70
41756;DHT22;27435;48.480;9.258;2022-07-23T12:00:20;28.50;63.40
41756;DHT22;27435;48.480;9.258;2022-07-23T12:02:58;28.50;63.20
41756;DHT22;27435;48.480;9.258;2022-07-23T12:05:30;28.50;63.10
41756;DHT22;27435;48.480;9.258;2022-07-23T12:07:57;28.30;64.00
41756;DHT22;27435;48.480;9.258;2022-07-23T12:10:38;28.20;64.70
41756;DHT22;27435;48.480;9.258;2022-07-23T12:13:09;28.30;65.30
41756;DHT22;27435;48.480;9.258;2022-07-23T12:15:44;28.30;64.50
41756;DHT22;27435;48.480;9.258;2022-07-23T12:18:13;28.70;64.30
41756;DHT22;27435;48.480;9.258;2022-07-23T12:20:51;28.60;64.10
41756;DHT22;27435;48.480;9.258;2022-07-23T12:23:19;29.10;63.40
41756;DHT22;27435;48.480;9.258;2022-07-23T12:25:46;28.70;62.90
41756;DHT22;27435;48.480;9.258;2022-07-23T12:28:17;28.80;63.60
41756;DHT22;27435;48.480;9.258;2022-07-23T12:30:43;29.40;62.20
41756;DHT22;27435;48.480;9.258;2022-07-23T12:33:13;29.50;61.20
41756;DHT22;27435;48.480;9.258;2022-07-23T12:35:45;29.40;60.90
41756;DHT22;27435;48.480;9.258;2022-07-23T12:38:19;29.70;59.80
41756;DHT22;27435;48.480;9.258;2022-07-23T12:40:47;30.40;58.00
41756;DHT22;27435;48.480;9.258;2022-07-23T12:43:31;29.70;59.70
41756;DHT22;27435;48.480;9.258;2022-07-23T12:46:05;29.50;60.10
41756;DHT22;27435;48.480;9.258;2022-07-23T12:48:35;29.20;60.20
41756;DHT22;27435;48.480;9.258;2022-07-23T12:51:04;29.00;61.60
41756;DHT22;27435;48.480;9.258;2022-07-23T12:53:37;29.00;60.50
41756;DHT22;27435;48.480;9.258;2022-07-23T12:56:08;29.30;60.70
41756;DHT22;27435;48.480;9.258;2022-07-23T12:58:52;30.40;57.20
41756;DHT22;27435;48.480;9.258;2022-07-23T13:06:30;31.00;56.50
41756;DHT22;27435;48.480;9.258;2022-07-23T13:08:56;29.90;59.20
41756;DHT22;27435;48.480;9.258;2022-07-23T13:11:22;29.30;61.60
41756;DHT22;27435;48.480;9.258;2022-07-23T13:13:49;29.40;61.70
41756;DHT22;27435;48.480;9.258;2022-07-23T13:16:14;29.40;61.60
41756;DHT22;27435;48.480;9.258;2022-07-23T13:18:41;29.10;61.20
41756;DHT22;27435;48.480;9.258;2022-07-23T13:21:07;28.90;62.00
41756;DHT22;27435;48.480;9.258;2022-07-23T13:23:33;29.40;60.90
41756;DHT22;27435;48.480;9.258;2022-07-23T13:25:59;29.30;61.30
41756;DHT22;27435;48.480;9.258;2022-07-23T13:28:25;29.00;61.60
41756;DHT22;27435;48.480;9.258;2022-07-23T13:30:51;29.00;61.70
41756;DHT22;27435;48.480;9.258;2022-07-23T13:33:23;29.20;60.60
41756;DHT22;27435;48.480;9.258;2022-07-23T13:35:49;29.10;60.60
41756;DHT22;27435;48.480;9.258;2022-07-23T13:38:16;29.10;59.50
41756;DHT22;27435;48.480;9.258;2022-07-23T13:40:44;29.10;59.50
41756;DHT22;27435;48.480;9.258;2022-07-23T13:43:11;28.90;59.80
41756;DHT22;27435;48.480;9.258;2022-07-23T13:45:38;29.10;59.80
41756;DHT22;27435;48.480;9.258;2022-07-23T13:48:06;29.50;59.60
41756;DHT22;27435;48.480;9.258;2022-07-23T13:50:32;29.20;59.00
41756;DHT22;27435;48.480;9.258;2022-07-23T13:53:01;28.90;59.50
41756;DHT22;27435;48.480;9.258;2022-07-23T13:55:27;28.60;60.50
41756;DHT22;27435;48.480;9.258;2022-07-23T13:57:53;28.10;61.40
41756;DHT22;27435;48.480;9.258;2022-07-23T14:00:18;27.90;62.10
41756;DHT22;27435;48.480;9.258;2022-07-23T14:02:44;27.90;61.60
41756;DHT22;27435;48.480;9.258;2022-07-23T14:05:11;27.60;62.30
41756;DHT22;27435;48.480;9.258;2022-07-23T14:07:37;27.70;62.20
41756;DHT22;27435;48.480;9.258;2022-07-23T14:10:04;27.80;62.20
41756;DHT22;27435;48.480;9.258;2022-07-23T14:12:30;28.00;61.60
41756;DHT22;27435;48.480;9.258;2022-07-23T14:14:56;28.00;61.00
41756;DHT22;27435;48.480;9.258;2022-07-23T14:17:22;27.80;61.60
41756;DHT22;27435;48.480;9.258;2022-07-23T14:19:48;27.50;61.60
41756;DHT22;27435;48.480;9.258;2022-07-23T14:22:14;27.20;63.20
41756;DHT22;27435;48.480;9.258;2022-07-23T14:24:40;27.20;63.00
41756;DHT22;27435;48.480;9.258;2022-07-23T14:27:05;26.50;69.80
41756;DHT22;27435;48.480;9.258;2022-07-23T14:29:31;26.10;71.50
41756;DHT22;27435;48.480;9.258;2022-07-23T14:31:58;26.30;68.90
41756;DHT22;27435;48.480;9.258;2022-07-23T14:34:24;26.80;67.70
41756;DHT22;27435;48.480;9.258;2022-07-23T14:36:50;27.20;66.10
41756;DHT22;27435;48.480;9.258;2022-07-23T14:39:16;27.70;64.70
41756;DHT22;27435;48.480;9.258;2022-07-23T14:41:42;28.20;62.80
41756;DHT22;27435;48.480;9.258;2022-07-23T14:44:07;28.60;62.60
41756;DHT22;27435;48.480;9.258;2022-07-23T14:46:33;28.80;60.90
41756;DHT22;27435;48.480;9.258;2022-07-23T14:48:59;28.80;61.20
41756;DHT22;27435;48.480;9.258;2022-07-23T14:51:24;29.20;60.10
41756;DHT22;27435;48.480;9.258;2022-07-23T14:53:50;29.60;58.40
41756;DHT22;27435;48.480;9.258;2022-07-23T14:56:17;29.70;58.10
41756;DHT22;27435;48.480;9.258;2022-07-23T14:58:42;29.90;57.40
41756;DHT22;27435;48.480;9.258;2022-07-23T15:01:08;30.20;57.40
41756;DHT22;27435;48.480;9.258;2022-07-23T15:03:34;30.40;56.80
41756;DHT22;27435;48.480;9.258;2022-07-23T15:05:59;30.30;56.10
41756;DHT22;27435;48.480;9.258;2022-07-23T15:08:25;30.40;56.60
41756;DHT22;27435;48.480;9.258;2022-07-23T15:10:51;30.70;54.40
41756;DHT22;27435;48.480;9.258;2022-07-23T15:13:17;30.40;55.90
41756;DHT22;27435;48.480;9.258;2022-07-23T15:15:43;30.10;57.00
41756;DHT22;27435;48.480;9.258;2022-07-23T15:18:09;30.50;56.00
41756;DHT22;27435;48.480;9.258;2022-07-23T15:20:35;30.80;54.70
41756;DHT22;27435;48.480;9.258;2022-07-23T15:23:03;30.70;55.40
41756;DHT22;27435;48.480;9.258;2022-07-23T15:25:28;31.70;53.70
41756;DHT22;27435;48.480;9.258;2022-07-23T15:27:54;32.10;52.80
41756;DHT22;27435;48.480;9.258;2022-07-23T15:30:20;32.50;51.50
41756;DHT22;27435;48.480;9.258;2022-07-23T15:32:45;32.90;51.00
41756;DHT22;27435;48.480;9.258;2022-07-23T15:35:11;33.80;48.90
41756;DHT22;27435;48.480;9.258;2022-07-23T15:37:36;33.20;50.10
41756;DHT22;27435;48.480;9.258;2022-07-23T15:40:03;32.20;51.40
41756;DHT22;27435;48.480;9.258;2022-07-23T15:42:31;32.60;51.10
41756;DHT22;27435;48.480;9.258;2022-07-23T15:44:57;34.30;47.90
41756;DHT22;27435;48.480;9.258;2022-07-23T15:47:23;34.30;48.40
41756;DHT22;27435;48.480;9.258;2022-07-23T15:49:48;33.60;48.70
41756;DHT22;27435;48.480;9.258;2022-07-23T15:52:14;33.30;49.40
41756;DHT22;27435;48.480;9.258;2022-07-23T15:54:40;33.20;50.10
41756;DHT22;27435;48.480;9.258;2022-07-23T15:57:06;34.30;48.50
41756;DHT22;27435;48.480;9.258;2022-07-23T15:59:32;33.70;48.40
41756;DHT22;27435;48.480;9.258;2022-07-23T16:01:58;33.30;49.00
41756;DHT22;27435;48.480;9.258;2022-07-23T16:04:24;33.00;49.20
41756;DHT22;27435;48.480;9.258;2022-07-23T16:06:50;31.60;50.90
41756;DHT22;27435;48.480;9.258;2022-07-23T16:09:16;30.20;53.90